Terminal Aerodrome Forecast
Issued by NWS Indianapolis, IN

Home | Current Version | Previous Version | Text Only | Print | Product List | Glossary On
Versions: 1 2 3 4 5 6 7 8 9 10 11 12 13 14 15 16 17 18 19 20 21 22 23 24 25 26 27 28 29 30
000
FTUS43 KIND 172144 AAD
TAFIND
TAF AMD
KIND 172144Z 1722/1824 22010KT 5SM -RASN BR OVC008
      TEMPO 1722/1723 2SM -SNRA BR
     FM172300 23008KT P6SM VCSH OVC008
     FM180200 25007KT P6SM OVC008
     FM180400 26006KT P6SM BKN035
     FM180700 28005KT P6SM SCT030=

USA.gov is the U.S. government's official web portal to all federal, state and local government web resources and services.